Time;durP1;ratioP1;P1;durP2;ratioP2;P2;SDS_P1;SDS_P2;PMS_P1;PMS_P2;Temp;Humidity;BMP_temperature;BMP_pressure;BME280_temperature;BME280_humidity;BME280_pressure;Samples;Min_cycle;Max_cycle;Signal;HPM_P1;HPM_P2
2021/06/21 00:00:11;;;;;;;;;;;;;;;;;;5047034;28;19924;-89
2021/06/21 00:02:41;;;;;;;;;;;;;;;;;;5028473;28;19924;-90
2021/06/21 00:05:10;;;;;;;;;;;;;;;;;;5028853;28;19925;-89
2021/06/21 00:07:38;;;;;;;;;;;;;;;;;;5032690;28;19925;-90
2021/06/21 00:10:07;;;;;;;;;;;;;;;;;;5047002;28;19931;-89
2021/06/21 00:12:35;;;;;;;;;;;;;;;;;;5028185;28;19932;-89
2021/06/21 00:15:05;;;;;;;;;;;;;;;;;;5057102;28;19924;-89
2021/06/21 00:17:34;;;;;;;;;;;;;;;;;;5034423;28;20289;-89
2021/06/21 00:20:02;;;;;;;;;;;;;;;;;;5050597;28;19929;-91
2021/06/21 00:22:30;;;;;;;;;;;;;;;;;;5046885;28;19951;-90
2021/06/21 00:24:59;;;;;;;;;;;;;;;;;;5048816;28;19932;-89
2021/06/21 00:27:27;;;;;;;;;;;;;;;;;;5058462;28;19924;-90
2021/06/21 00:29:55;;;;;;;;;;;;;;;;;;5042711;28;19929;-89
2021/06/21 00:32:25;;;;;;;;;;;;;;;;;;5042287;28;19925;-90
2021/06/21 00:34:54;;;;;;;;;;;;;;;;;;5042962;28;20373;-89
2021/06/21 00:37:22;;;;;;;;;;;;;;;;;;5059064;28;20312;-90
2021/06/21 00:39:50;;;;;;;;;;;;;;;;;;5033990;28;19925;-90
2021/06/21 00:42:19;;;;;;;;;;;;;;;;;;5026464;28;19936;-89
2021/06/21 00:44:48;;;;;;;;;;;;;;;;;;5030948;28;19925;-89
2021/06/21 00:47:18;;;;;;;;;;;;;;;;;;5061514;28;20387;-89
2021/06/21 00:49:47;;;;;;;;;;;;;;;;;;5041106;28;19932;-90
2021/06/21 00:52:18;;;;;;;;;;;;;;;;;;5034466;28;19928;-90
2021/06/21 00:54:46;;;;;;;;;;;;;;;;;;5052301;28;19935;-89
2021/06/21 00:57:14;;;;;;;;;;;;;;;;;;5044761;28;19925;-90
2021/06/21 00:59:43;;;;;;;;;;;;;;;;;;5045331;28;19925;-89
2021/06/21 01:02:11;;;;;;;;;;;;;;;;;;5027557;28;19925;-90
2021/06/21 01:04:41;;;;;;;;;;;;;;;;;;5050905;28;19925;-90
2021/06/21 01:07:11;;;;;;;;;;;;;;;;;;5042652;28;19939;-90
2021/06/21 01:09:39;;;;;;;;;;;;;;;;;;5040832;28;19934;-89
2021/06/21 01:12:09;;;;;;;;;;;;;;;;;;5052377;28;19932;-90
2021/06/21 01:14:38;;;;;;;;;;;;;;;;;;5042029;28;19925;-90
2021/06/21 01:17:08;;;;;;;;;;;;;;;;;;5032535;28;19925;-91
2021/06/21 01:20:00;;;;;;;;;;;;;;;;;;5038022;28;19925;-91
2021/06/21 01:22:53;;;;;;;;;;;;;;;;;;5042401;28;19924;-91
2021/06/21 01:25:28;;;;;;;;;;;;;;;;;;5052612;28;19932;-90
2021/06/21 01:28:01;;;;;;;;;;;;;;;;;;5040839;28;19925;-92
2021/06/21 01:30:51;;;;;;;;;;;;;;;;;;5025273;28;19931;-90
2021/06/21 01:33:21;;;;;;;;;;;;;;;;;;5038991;28;19925;-90
2021/06/21 01:35:55;;;;;;;;;;;;;;;;;;5022346;28;19936;-90
2021/06/21 01:38:23;;;;;;;;;;;;;;;;;;5033702;28;19947;-90
2021/06/21 01:40:53;;;;;;;;;;;;;;;;;;5036799;28;19932;-90
2021/06/21 01:43:24;;;;;;;;;;;;;;;;;;5048569;28;19931;-90
2021/06/21 01:45:52;;;;;;;;;;;;;;;;;;5014606;28;19929;-89
2021/06/21 01:48:24;;;;;;;;;;;;;;;;;;5032286;28;20422;-89
2021/06/21 01:50:53;;;;;;;;;;;;;;;;;;5040751;28;19932;-90
2021/06/21 01:53:23;;;;;;;;;;;;;;;;;;5033255;28;20392;-91
2021/06/21 01:55:55;;;;;;;;;;;;;;;;;;5047580;28;19940;-90
2021/06/21 01:58:25;;;;;;;;;;;;;;;;;;5032347;28;19926;-91
2021/06/21 02:00:54;;;;;;;;;;;;;;;;;;5041224;28;19932;-90
2021/06/21 02:03:24;;;;;;;;;;;;;;;;;;5019441;28;19932;-89
2021/06/21 02:05:52;;;;;;;;;;;;;;;;;;5031456;28;19931;-89
2021/06/21 02:08:22;;;;;;;;;;;;;;;;;;5043748;28;19936;-90
2021/06/21 02:10:51;;;;;;;;;;;;;;;;;;5041070;28;19916;-91
2021/06/21 02:13:21;;;;;;;;;;;;;;;;;;5046175;28;19939;-90
2021/06/21 02:15:49;;;;;;;;;;;;;;;;;;5029245;28;20614;-89
2021/06/21 02:18:17;;;;;;;;;;;;;;;;;;5058761;28;19928;-88
2021/06/21 02:20:48;;;;;;;;;;;;;;;;;;5053614;28;19924;-90
2021/06/21 02:23:16;;;;;;;;;;;;;;;;;;5027573;28;19935;-89
2021/06/21 02:25:45;;;;;;;;;;;;;;;;;;5047490;28;19925;-89
2021/06/21 02:28:13;;;;;;;;;;;;;;;;;;5044632;28;19932;-88
2021/06/21 02:30:42;;;;;;;;;;;;;;;;;;5035398;28;19936;-90
2021/06/21 02:33:10;;;;;;;;;;;;;;;;;;5064630;28;19944;-90
2021/06/21 02:35:39;;;;;;;;;;;;;;;;;;5040427;28;19932;-91
2021/06/21 02:38:08;;;;;;;;;;;;;;;;;;5037395;28;19940;-90
2021/06/21 02:40:37;;;;;;;;;;;;;;;;;;5042004;28;19925;-91
2021/06/21 02:43:05;;;;;;;;;;;;;;;;;;5049020;28;19937;-91
2021/06/21 02:45:34;;;;;;;;;;;;;;;;;;5032614;28;20061;-89
2021/06/21 02:48:03;;;;;;;;;;;;;;;;;;5041190;28;19925;-89
2021/06/21 02:50:31;;;;;;;;;;;;;;;;;;5049134;28;19925;-86
2021/06/21 02:53:01;;;;;;;;;;;;;;;;;;5043760;28;19924;-87
2021/06/21 02:55:33;;;;;;;;;;;;;;;;;;5042851;28;21629;-87
2021/06/21 02:58:03;;;;;;;;;;;;;;;;;;5050245;28;19932;-89
2021/06/21 03:00:31;;;;;;;;;;;;;;;;;;5030000;28;19925;-90
2021/06/21 03:03:00;;;;;;;;;;;;;;;;;;5041292;28;20360;-90
2021/06/21 03:05:29;;;;;;;;;;;;;;;;;;5038930;28;19929;-89
2021/06/21 03:07:57;;;;;;;;;;;;;;;;;;5041628;28;19931;-89
2021/06/21 03:10:26;;;;;;;;;;;;;;;;;;5040700;28;20420;-90
2021/06/21 03:12:56;;;;;;;;;;;;;;;;;;5049849;28;19932;-90
2021/06/21 03:15:26;;;;;;;;;;;;;;;;;;5041210;28;19932;-90
2021/06/21 03:17:55;;;;;;;;;;;;;;;;;;5062738;28;19925;-90
2021/06/21 03:20:23;;;;;;;;;;;;;;;;;;5045823;28;19925;-91
2021/06/21 03:22:55;;;;;;;;;;;;;;;;;;5030029;28;20392;-89
2021/06/21 03:25:27;;;;;;;;;;;;;;;;;;5046542;28;20319;-90
2021/06/21 03:27:57;;;;;;;;;;;;;;;;;;5049259;28;19925;-89
2021/06/21 03:30:25;;;;;;;;;;;;;;;;;;5056046;28;19932;-90
2021/06/21 03:32:54;;;;;;;;;;;;;;;;;;5039659;28;19925;-91
2021/06/21 03:35:22;;;;;;;;;;;;;;;;;;5041040;28;19932;-90
2021/06/21 03:37:52;;;;;;;;;;;;;;;;;;5049566;28;19932;-89
2021/06/21 03:40:21;;;;;;;;;;;;;;;;;;5053366;28;19935;-90
2021/06/21 03:42:49;;;;;;;;;;;;;;;;;;5037385;28;20388;-89
2021/06/21 03:45:19;;;;;;;;;;;;;;;;;;5054377;28;19924;-90
2021/06/21 03:47:48;;;;;;;;;;;;;;;;;;5042860;28;19925;-91
2021/06/21 03:50:16;;;;;;;;;;;;;;;;;;5056193;28;19932;-89
2021/06/21 03:52:44;;;;;;;;;;;;;;;;;;5028038;28;19936;-90
2021/06/21 03:55:13;;;;;;;;;;;;;;;;;;5024133;28;19940;-89
2021/06/21 03:57:43;;;;;;;;;;;;;;;;;;5041096;28;20304;-90
2021/06/21 04:00:12;;;;;;;;;;;;;;;;;;5030653;28;19931;-91
2021/06/21 04:02:42;;;;;;;;;;;;;;;;;;5067024;28;19925;-90
2021/06/21 04:05:11;;;;;;;;;;;;;;;;;;5058862;28;19913;-95
2021/06/21 04:07:40;;;;;;;;;;;;;;;;;;5062290;28;19932;-90
2021/06/21 04:10:09;;;;;;;;;;;;;;;;;;5062984;28;19925;-92
2021/06/21 04:12:37;;;;;;;;;;;;;;;;;;5037984;28;19931;-90
2021/06/21 04:15:06;;;;;;;;;;;;;;;;;;5033825;28;19996;-90
2021/06/21 04:17:35;;;;;;;;;;;;;;;;;;5034597;28;19931;-91
2021/06/21 04:20:05;;;;;;;;;;;;;;;;;;5015241;28;19925;-90
2021/06/21 04:22:33;;;;;;;;;;;;;;;;;;5033463;28;19932;-89
2021/06/21 04:25:01;;;;;;;;;;;;;;;;;;5059405;28;19932;-91
2021/06/21 04:27:30;;;;;;;;;;;;;;;;;;5031637;28;19929;-91
2021/06/21 04:29:58;;;;;;;;;;;;;;;;;;5046954;28;19935;-90
2021/06/21 04:32:27;;;;;;;;;;;;;;;;;;5052372;28;19940;-90
2021/06/21 04:34:56;;;;;;;;;;;;;;;;;;5040832;28;19933;-91
2021/06/21 04:37:26;;;;;;;;;;;;;;;;;;5076134;28;19932;-91
2021/06/21 04:39:54;;;;;;;;;;;;;;;;;;5045730;28;19925;-90
2021/06/21 04:42:23;;;;;;;;;;;;;;;;;;5051231;28;19925;-91
2021/06/21 04:44:52;;;;;;;;;;;;;;;;;;5049019;28;19925;-90
2021/06/21 04:47:23;;;;;;;;;;;;;;;;;;5045217;28;19924;-91
2021/06/21 04:49:52;;;;;;;;;;;;;;;;;;5037749;28;19924;-89
2021/06/21 04:52:22;;;;;;;;;;;;;;;;;;5067251;28;19924;-90
2021/06/21 04:54:52;;;;;;;;;;;;;;;;;;5034481;28;19936;-89
2021/06/21 04:57:21;;;;;;;;;;;;;;;;;;5030070;28;20320;-88
2021/06/21 04:59:49;;;;;;;;;;;;;;;;;;5028150;28;19929;-88
2021/06/21 05:02:17;;;;;;;;;;;;;;;;;;5034568;28;19925;-88
2021/06/21 05:04:46;;;;;;;;;;;;;;;;;;5038139;28;20404;-87
2021/06/21 05:07:14;;;;;;;;;;;;;;;;;;5036990;28;20403;-88
2021/06/21 05:09:43;;;;;;;;;;;;;;;;;;5048116;28;19919;-89
2021/06/21 05:12:12;;;;;;;;;;;;;;;;;;5069400;28;19920;-90
2021/06/21 05:14:41;;;;;;;;;;;;;;;;;;5045459;28;19988;-89
2021/06/21 05:17:10;;;;;;;;;;;;;;;;;;5035447;28;19925;-90
2021/06/21 05:19:39;;;;;;;;;;;;;;;;;;5029288;28;19924;-89
2021/06/21 05:22:07;;;;;;;;;;;;;;;;;;5046908;28;19929;-90
2021/06/21 05:24:35;;;;;;;;;;;;;;;;;;5034269;28;19925;-89
2021/06/21 05:27:04;;;;;;;;;;;;;;;;;;5039586;28;19925;-87
2021/06/21 05:29:33;;;;;;;;;;;;;;;;;;5039285;28;20300;-88
2021/06/21 05:32:02;;;;;;;;;;;;;;;;;;5044007;28;20333;-86
2021/06/21 05:34:32;;;;;;;;;;;;;;;;;;5066955;28;19925;-88
2021/06/21 05:37:12;;;;;;;;;;;;;;;;;;5017497;28;19940;-88
2021/06/21 05:39:42;;;;;;;;;;;;;;;;;;5045210;28;20304;-87
2021/06/21 05:48:53;;;;;;;;;;;;;;;;;;5035487;28;19925;-88
2021/06/21 05:51:55;;;;;;;;;;;;;;;;;;5050415;28;19924;-88
2021/06/21 05:54:23;;;;;;;;;;;;;;;;;;5034055;28;20407;-87
2021/06/21 05:56:51;;;;;;;;;;;;;;;;;;5032584;28;20397;-88
2021/06/21 05:59:19;;;;;;;;;;;;;;;;;;5018829;28;20332;-87
2021/06/21 06:01:49;;;;;;;;;;;;;;;;;;5035150;28;19939;-87
2021/06/21 06:04:17;;;;;;;;;;;;;;;;;;5036642;28;19925;-88
2021/06/21 06:06:46;;;;;;;;;;;;;;;;;;5041698;28;20448;-91
2021/06/21 06:09:14;;;;;;;;;;;;;;;;;;5050107;28;20296;-90
2021/06/21 06:11:42;;;;;;;;;;;;;;;;;;5038043;28;19929;-91
2021/06/21 06:14:10;;;;;;;;;;;;;;;;;;5038607;28;19932;-91
2021/06/21 06:16:39;;;;;;;;;;;;;;;;;;5034714;28;19932;-91
2021/06/21 06:19:09;;;;;;;;;;;;;;;;;;5034929;28;19947;-89
2021/06/21 06:21:41;;;;;;;;;;;;;;;;;;5049370;28;19948;-92
2021/06/21 06:24:12;;;;;;;;;;;;;;;;;;5047356;28;19925;-93
2021/06/21 06:26:42;;;;;;;;;;;;;;;;;;5045476;28;20303;-90
2021/06/21 06:29:11;;;;;;;;;;;;;;;;;;5047129;28;19925;-90
2021/06/21 06:31:41;;;;;;;;;;;;;;;;;;5026331;28;19932;-89
2021/06/21 06:34:11;;;;;;;;;;;;;;;;;;5050740;28;19925;-93
2021/06/21 06:36:40;;;;;;;;;;;;;;;;;;5069491;28;19913;-93
2021/06/21 06:39:08;;;;;;;;;;;;;;;;;;5058630;28;19935;-91
2021/06/21 06:41:37;;;;;;;;;;;;;;;;;;5056200;28;19925;-90
2021/06/21 06:44:05;;;;;;;;;;;;;;;;;;5037116;28;19925;-89
2021/06/21 06:46:33;;;;;;;;;;;;;;;;;;5035828;28;19932;-88
2021/06/21 06:49:02;;;;;;;;;;;;;;;;;;5036219;28;19925;-89
2021/06/21 06:51:35;;;;;;;;;;;;;;;;;;5034982;28;19925;-90
2021/06/21 06:54:05;;;;;;;;;;;;;;;;;;5035988;28;19940;-91
2021/06/21 06:59:19;;;;;;;;;;;;;;;;;;5037430;28;20316;-89
2021/06/21 07:01:48;;;;;;;;;;;;;;;;;;5034509;28;19928;-90
2021/06/21 07:04:18;;;;;;;;;;;;;;;;;;5055540;28;19940;-89
2021/06/21 07:06:48;;;;;;;;;;;;;;;;;;5018016;28;19925;-89
2021/06/21 07:09:17;;;;;;;;;;;;;;;;;;5039099;28;19924;-90
2021/06/21 07:11:47;;;;;;;;;;;;;;;;;;5035034;28;19932;-88
2021/06/21 07:14:16;;;;;;;;;;;;;;;;;;5040106;28;19925;-86
2021/06/21 07:16:45;;;;;;;;;;;;;;;;;;5019264;28;19925;-84
2021/06/21 07:19:14;;;;;;;;;;;;;;;;;;5050194;28;20384;-88
2021/06/21 07:21:42;;;;;;;;;;;;;;;;;;5051372;28;19924;-88
2021/06/21 07:24:12;;;;;;;;;;;;;;;;;;5050694;28;19939;-87
2021/06/21 07:26:41;;;;;;;;;;;;;;;;;;5049533;28;19932;-89
2021/06/21 07:29:10;;;;;;;;;;;;;;;;;;5036637;28;20388;-89
2021/06/21 07:31:39;;;;;;;;;;;;;;;;;;5053377;28;19932;-90
2021/06/21 07:34:09;;;;;;;;;;;;;;;;;;5018772;28;19932;-90
2021/06/21 07:36:38;;;;;;;;;;;;;;;;;;5019221;28;19928;-87
2021/06/21 07:39:06;;;;;;;;;;;;;;;;;;5034095;28;19925;-87
2021/06/21 07:41:36;;;;;;;;;;;;;;;;;;5035275;28;19925;-86
2021/06/21 07:44:04;;;;;;;;;;;;;;;;;;5018136;28;19928;-88
2021/06/21 07:46:33;;;;;;;;;;;;;;;;;;5032644;28;19925;-86
2021/06/21 07:49:02;;;;;;;;;;;;;;;;;;5049898;28;19932;-87
2021/06/21 07:51:31;;;;;;;;;;;;;;;;;;5026459;28;19925;-87
2021/06/21 07:53:59;;;;;;;;;;;;;;;;;;5051795;28;20172;-87
2021/06/21 07:56:28;;;;;;;;;;;;;;;;;;5030777;28;19932;-87
2021/06/21 07:58:57;;;;;;;;;;;;;;;;;;5034826;28;19929;-85
2021/06/21 08:01:26;;;;;;;;;;;;;;;;;;5041955;28;19932;-88
2021/06/21 08:03:56;;;;;;;;;;;;;;;;;;5038449;28;19928;-87
2021/06/21 08:06:25;;;;;;;;;;;;;;;;;;5036984;28;19932;-88
2021/06/21 08:08:53;;;;;;;;;;;;;;;;;;5024248;28;20142;-87
2021/06/21 08:11:21;;;;;;;;;;;;;;;;;;5022928;28;19932;-88
2021/06/21 08:13:58;;;;;;;;;;;;;;;;;;5052584;28;19946;-88
2021/06/21 08:16:28;;;;;;;;;;;;;;;;;;5040765;28;19912;-87
2021/06/21 08:18:57;;;;;;;;;;;;;;;;;;5044848;28;19929;-88
2021/06/21 08:21:26;;;;;;;;;;;;;;;;;;5044751;28;19925;-88
2021/06/21 08:23:55;;;;;;;;;;;;;;;;;;5035320;28;19940;-87
2021/06/21 08:26:23;;;;;;;;;;;;;;;;;;5035408;28;19932;-88
2021/06/21 08:28:51;;;;;;;;;;;;;;;;;;5035400;28;19925;-89
2021/06/21 08:31:21;;;;;;;;;;;;;;;;;;5054099;28;20398;-88
2021/06/21 08:33:49;;;;;;;;;;;;;;;;;;5035602;28;19928;-88
2021/06/21 08:36:18;;;;;;;;;;;;;;;;;;5034893;28;19925;-87
2021/06/21 08:38:46;;;;;;;;;;;;;;;;;;5023201;28;20396;-87
2021/06/21 08:41:14;;;;;;;;;;;;;;;;;;5019944;28;19933;-87
2021/06/21 08:43:44;;;;;;;;;;;;;;;;;;5026161;28;19929;-87
2021/06/21 08:46:12;;;;;;;;;;;;;;;;;;5024004;28;19947;-86
2021/06/21 08:48:42;;;;;;;;;;;;;;;;;;5052186;28;19924;-87
2021/06/21 08:51:12;;;;;;;;;;;;;;;;;;5043755;28;19952;-87
2021/06/21 08:53:40;;;;;;;;;;;;;;;;;;5065884;28;19939;-87
2021/06/21 08:56:10;;;;;;;;;;;;;;;;;;5048607;28;19924;-88
2021/06/21 08:58:38;;;;;;;;;;;;;;;;;;5042154;28;19925;-87
2021/06/21 09:01:07;;;;;;;;;;;;;;;;;;5045419;28;20311;-86
2021/06/21 09:03:46;;;;;;;;;;;;;;;;;;5024068;28;19924;-87
2021/06/21 09:06:21;;;;;;;;;;;;;;;;;;5054746;28;19929;-88
2021/06/21 09:08:54;;;;;;;;;;;;;;;;;;5055037;28;19936;-88
2021/06/21 09:11:23;;;;;;;;;;;;;;;;;;5061042;28;19943;-88
2021/06/21 09:13:52;;;;;;;;;;;;;;;;;;5058463;28;20025;-88
2021/06/21 09:16:20;;;;;;;;;;;;;;;;;;5046383;28;19913;-87
2021/06/21 09:18:50;;;;;;;;;;;;;;;;;;5047645;28;19919;-86
2021/06/21 09:21:22;;;;;;;;;;;;;;;;;;5047641;28;19913;-88
2021/06/21 09:24:15;;;;;;;;;;;;;;;;;;5060630;28;19909;-87
2021/06/21 09:26:44;;;;;;;;;;;;;;;;;;5050321;28;19909;-86
2021/06/21 09:29:13;;;;;;;;;;;;;;;;;;5079409;28;19913;-87
2021/06/21 09:31:52;;;;;;;;;;;;;;;;;;5078103;28;19913;-87
2021/06/21 09:34:22;;;;;;;;;;;;;;;;;;5078188;28;19922;-86
2021/06/21 09:36:51;;;;;;;;;;;;;;;;;;5058163;28;19943;-86
2021/06/21 09:39:23;;;;;;;;;;;;;;;;;;5023091;28;19940;-87
2021/06/21 09:42:10;;;;;;;;;;;;;;;;;;5051951;28;20397;-87
2021/06/21 09:44:39;;;;;;;;;;;;;;;;;;5015591;28;19929;-87
2021/06/21 09:47:12;;;;;;;;;;;;;;;;;;5025066;28;19924;-87
2021/06/21 09:49:52;;;;;;;;;;;;;;;;;;5044009;28;19933;-86
2021/06/21 09:52:32;;;;;;;;;;;;;;;;;;5020263;28;19925;-88
2021/06/21 09:55:08;;;;;;;;;;;;;;;;;;5036290;28;19931;-86
2021/06/21 09:57:37;;;;;;;;;;;;;;;;;;5037540;28;20357;-86
2021/06/21 10:00:09;;;;;;;;;;;;;;;;;;5018008;28;19932;-85
2021/06/21 10:02:38;;;;;;;;;;;;;;;;;;5052034;28;19925;-88
2021/06/21 10:05:19;;;;;;;;;;;;;;;;;;5034227;28;19935;-87
2021/06/21 10:07:47;;;;;;;;;;;;;;;;;;5028089;28;19925;-87
2021/06/21 10:10:19;;;;;;;;;;;;;;;;;;5039432;28;19928;-87
2021/06/21 10:12:48;;;;;;;;;;;;;;;;;;5060755;28;19929;-87
2021/06/21 10:15:16;;;;;;;;;;;;;;;;;;5059995;28;19928;-84
2021/06/21 10:17:45;;;;;;;;;;;;;;;;;;5045849;28;19931;-86
2021/06/21 10:20:15;;;;;;;;;;;;;;;;;;5047000;28;19931;-87
2021/06/21 10:22:43;;;;;;;;;;;;;;;;;;5045527;28;19932;-87
2021/06/21 10:25:12;;;;;;;;;;;;;;;;;;5041700;28;19944;-87
2021/06/21 10:27:41;;;;;;;;;;;;;;;;;;5063830;28;19924;-86
2021/06/21 10:30:11;;;;;;;;;;;;;;;;;;5057310;28;19925;-86
2021/06/21 10:32:40;;;;;;;;;;;;;;;;;;5039532;28;19924;-88
2021/06/21 10:35:11;;;;;;;;;;;;;;;;;;5041665;28;19935;-88
2021/06/21 10:37:54;;;;;;;;;;;;;;;;;;5057703;28;20399;-87
2021/06/21 10:40:23;;;;;;;;;;;;;;;;;;5040479;28;19932;-87
2021/06/21 10:42:52;;;;;;;;;;;;;;;;;;5036597;28;20328;-89
2021/06/21 10:45:21;;;;;;;;;;;;;;;;;;5032811;28;19932;-89
2021/06/21 10:47:52;;;;;;;;;;;;;;;;;;5035925;28;19924;-89
2021/06/21 10:50:24;;;;;;;;;;;;;;;;;;5030623;28;20379;-89
2021/06/21 10:52:58;;;;;;;;;;;;;;;;;;5031381;28;19932;-89
2021/06/21 10:55:41;;;;;;;;;;;;;;;;;;5046066;28;19952;-89
2021/06/21 10:58:11;;;;;;;;;;;;;;;;;;5050957;28;19925;-87
2021/06/21 11:00:40;;;;;;;;;;;;;;;;;;5054702;28;20026;-88
2021/06/21 11:03:38;;;;;;;;;;;;;;;;;;5059150;28;19915;-91
2021/06/21 11:06:07;;;;;;;;;;;;;;;;;;5010794;28;19930;-88
2021/06/21 11:08:45;;;;;;;;;;;;;;;;;;5062309;28;19929;-88
2021/06/21 11:11:32;;;;;;;;;;;;;;;;;;5053347;28;19939;-88
2021/06/21 11:14:05;;;;;;;;;;;;;;;;;;5037616;28;19925;-87
2021/06/21 11:16:34;;;;;;;;;;;;;;;;;;5028617;28;20313;-87
2021/06/21 11:19:22;;;;;;;;;;;;;;;;;;5051266;28;19928;-87
2021/06/21 11:21:53;;;;;;;;;;;;;;;;;;5031178;28;19932;-89
2021/06/21 11:24:42;;;;;;;;;;;;;;;;;;5041182;28;19925;-87
2021/06/21 11:27:14;;;;;;;;;;;;;;;;;;5037881;28;19929;-87
2021/06/21 11:29:42;;;;;;;;;;;;;;;;;;5020546;28;19932;-87
2021/06/21 11:32:11;;;;;;;;;;;;;;;;;;5035795;28;19925;-88
2021/06/21 11:34:47;;;;;;;;;;;;;;;;;;5051561;28;19932;-87
2021/06/21 11:37:28;;;;;;;;;;;;;;;;;;5060091;28;19924;-87
2021/06/21 11:40:11;;;;;;;;;;;;;;;;;;5027341;28;19940;-86
2021/06/21 11:42:41;;;;;;;;;;;;;;;;;;5044437;28;19924;-87
2021/06/21 11:45:10;;;;;;;;;;;;;;;;;;5057645;28;19948;-87
2021/06/21 11:47:38;;;;;;;;;;;;;;;;;;5040064;28;19932;-87
2021/06/21 11:50:08;;;;;;;;;;;;;;;;;;5024296;28;19929;-88
2021/06/21 11:52:36;;;;;;;;;;;;;;;;;;5040682;28;20327;-87
2021/06/21 11:55:16;;;;;;;;;;;;;;;;;;5043331;28;19935;-86
2021/06/21 11:57:47;;;;;;;;;;;;;;;;;;5055719;28;19932;-85
2021/06/21 12:00:15;;;;;;;;;;;;;;;;;;5038525;28;20008;-85
2021/06/21 12:02:44;;;;;;;;;;;;;;;;;;5062188;28;19925;-85
2021/06/21 12:05:15;;;;;;;;;;;;;;;;;;5044067;28;19925;-85
2021/06/21 12:07:44;;;;;;;;;;;;;;;;;;5045773;28;19936;-86
2021/06/21 12:10:15;;;;;;;;;;;;;;;;;;5046039;28;20404;-87
2021/06/21 12:12:44;;;;;;;;;;;;;;;;;;5075846;28;19925;-86
2021/06/21 12:15:14;;;;;;;;;;;;;;;;;;5043270;28;20407;-88
2021/06/21 12:17:43;;;;;;;;;;;;;;;;;;5048030;28;20296;-86
2021/06/21 12:20:15;;;;;;;;;;;;;;;;;;5061812;28;19931;-85
2021/06/21 12:22:52;;;;;;;;;;;;;;;;;;5039248;28;19932;-87
2021/06/21 12:25:25;;;;;;;;;;;;;;;;;;5053148;28;19925;-86
2021/06/21 12:27:54;;;;;;;;;;;;;;;;;;5041209;28;19924;-87
2021/06/21 12:30:34;;;;;;;;;;;;;;;;;;5078029;28;19932;-86
2021/06/21 12:33:17;;;;;;;;;;;;;;;;;;5041822;28;19940;-87
2021/06/21 12:36:00;;;;;;;;;;;;;;;;;;5044642;28;19932;-88
2021/06/21 12:38:29;;;;;;;;;;;;;;;;;;5055215;28;19927;-93
2021/06/21 12:40:57;;;;;;;;;;;;;;;;;;5053267;28;19925;-89
2021/06/21 12:43:26;;;;;;;;;;;;;;;;;;5056769;28;19931;-86
2021/06/21 12:45:55;;;;;;;;;;;;;;;;;;5054620;28;19932;-87
2021/06/21 12:48:24;;;;;;;;;;;;;;;;;;5063018;28;19931;-88
2021/06/21 12:50:52;;;;;;;;;;;;;;;;;;5056039;28;19940;-90
2021/06/21 12:53:20;;;;;;;;;;;;;;;;;;5062157;28;19930;-87
2021/06/21 12:55:49;;;;;;;;;;;;;;;;;;5036517;28;19925;-86
2021/06/21 12:58:17;;;;;;;;;;;;;;;;;;5047024;28;19925;-88
2021/06/21 13:00:46;;;;;;;;;;;;;;;;;;5053289;28;19925;-87
2021/06/21 13:03:17;;;;;;;;;;;;;;;;;;5036722;28;19928;-87
2021/06/21 13:05:47;;;;;;;;;;;;;;;;;;5041570;28;19932;-87
2021/06/21 13:08:15;;;;;;;;;;;;;;;;;;5043528;28;19936;-86
2021/06/21 13:10:44;;;;;;;;;;;;;;;;;;5044756;28;19951;-87
2021/06/21 13:13:12;;;;;;;;;;;;;;;;;;5044843;28;19925;-87
2021/06/21 13:15:42;;;;;;;;;;;;;;;;;;5053667;28;21101;-87
2021/06/21 13:18:11;;;;;;;;;;;;;;;;;;5039917;28;19928;-87
2021/06/21 13:20:48;;;;;;;;;;;;;;;;;;5069284;28;19935;-90
2021/06/21 13:23:17;;;;;;;;;;;;;;;;;;5065682;28;19921;-91
2021/06/21 13:25:45;;;;;;;;;;;;;;;;;;5067159;28;19923;-91
2021/06/21 13:28:14;;;;;;;;;;;;;;;;;;5060180;28;19909;-90
2021/06/21 13:30:43;;;;;;;;;;;;;;;;;;5078987;28;19935;-89
2021/06/21 13:33:19;;;;;;;;;;;;;;;;;;5051791;28;20148;-88
2021/06/21 13:35:58;;;;;;;;;;;;;;;;;;5050945;28;19929;-88
2021/06/21 13:38:29;;;;;;;;;;;;;;;;;;5051685;28;19938;-88
2021/06/21 13:40:58;;;;;;;;;;;;;;;;;;5069111;28;19910;-86
2021/06/21 13:43:30;;;;;;;;;;;;;;;;;;5070692;28;19913;-88
2021/06/21 13:46:06;;;;;;;;;;;;;;;;;;5200090;22;19932;-78
2021/06/21 13:48:35;;;;;;;;;;;;;;;;;;5074558;28;19939;-84
2021/06/21 13:51:11;;;;;;;;;;;;;;;;;;5072442;28;19931;-78
2021/06/21 13:53:40;;;;;;;;;;;;;;;;;;5087884;28;19943;-78
2021/06/21 13:56:09;;;;;;;;;;;;;;;;;;5077409;28;19925;-78
2021/06/21 13:58:56;;;;;;;;;;;;;;;;;;5089886;28;19924;-79
2021/06/21 14:01:24;;;;;;;;;;;;;;;;;;5091478;28;19931;-78
2021/06/21 14:03:53;;;;;;;;;;;;;;;;;;5074484;28;19935;-78
2021/06/21 14:06:24;;;;;;;;;;;;;;;;;;5083221;28;20305;-78
2021/06/21 14:08:53;;;;;;;;;;;;;;;;;;5081077;28;20285;-78
2021/06/21 14:11:21;;;;;;;;;;;;;;;;;;5072824;28;19924;-78
2021/06/21 14:13:49;;;;;;;;;;;;;;;;;;5062526;28;19932;-83
2021/06/21 14:16:19;;;;;;;;;;;;;;;;;;5067300;28;19935;-83
2021/06/21 14:18:49;;;;;;;;;;;;;;;;;;5071178;28;19924;-78
2021/06/21 14:21:17;;;;;;;;;;;;;;;;;;5068515;28;19927;-78
2021/06/21 14:23:48;;;;;;;;;;;;;;;;;;5087355;28;19924;-78
2021/06/21 14:26:16;;;;;;;;;;;;;;;;;;5080753;28;19932;-80
2021/06/21 14:28:45;;;;;;;;;;;;;;;;;;5089398;28;19924;-78
2021/06/21 14:31:14;;;;;;;;;;;;;;;;;;5042574;28;21407;-80
2021/06/21 14:33:44;;;;;;;;;;;;;;;;;;5060084;28;19924;-78
2021/06/21 14:36:12;;;;;;;;;;;;;;;;;;5063960;28;19925;-83
2021/06/21 14:38:41;;;;;;;;;;;;;;;;;;5058073;28;19924;-81
2021/06/21 14:41:10;;;;;;;;;;;;;;;;;;5052117;28;19928;-79
2021/06/21 14:43:39;;;;;;;;;;;;;;;;;;5081585;28;19925;-79
2021/06/21 14:46:07;;;;;;;;;;;;;;;;;;5072126;28;19929;-80
2021/06/21 14:48:36;;;;;;;;;;;;;;;;;;5053193;28;19932;-84
2021/06/21 14:51:06;;;;;;;;;;;;;;;;;;5071851;28;19924;-78
2021/06/21 14:53:34;;;;;;;;;;;;;;;;;;5066771;28;19929;-81
2021/06/21 14:56:02;;;;;;;;;;;;;;;;;;5050546;28;20314;-78
2021/06/21 14:58:35;;;;;;;;;;;;;;;;;;5085775;28;19931;-81
2021/06/21 15:01:03;;;;;;;;;;;;;;;;;;5075505;28;19924;-78
2021/06/21 15:03:31;;;;;;;;;;;;;;;;;;5056417;28;19935;-81
2021/06/21 15:06:00;;;;;;;;;;;;;;;;;;5046779;28;19928;-78
2021/06/21 15:08:28;;;;;;;;;;;;;;;;;;5083453;28;19935;-78
2021/06/21 15:10:56;;;;;;;;;;;;;;;;;;5079381;28;19931;-78
2021/06/21 15:13:25;;;;;;;;;;;;;;;;;;5041571;28;20401;-78
2021/06/21 15:15:55;;;;;;;;;;;;;;;;;;5072358;28;19924;-78
2021/06/21 15:18:23;;;;;;;;;;;;;;;;;;5060341;28;19932;-78
2021/06/21 15:20:51;;;;;;;;;;;;;;;;;;5065839;28;19931;-82
2021/06/21 15:23:20;;;;;;;;;;;;;;;;;;5075493;28;19947;-82
2021/06/21 15:25:48;;;;;;;;;;;;;;;;;;5058604;28;19928;-79
2021/06/21 15:28:16;;;;;;;;;;;;;;;;;;5081351;28;19924;-78
2021/06/21 15:30:45;;;;;;;;;;;;;;;;;;5088568;28;19924;-78
2021/06/21 15:33:15;;;;;;;;;;;;;;;;;;5076130;28;19927;-78
2021/06/21 15:35:43;;;;;;;;;;;;;;;;;;5070254;28;19924;-81
2021/06/21 15:38:12;;;;;;;;;;;;;;;;;;5084246;28;19947;-78
2021/06/21 15:40:40;;;;;;;;;;;;;;;;;;5070895;28;20409;-78
2021/06/21 15:43:08;;;;;;;;;;;;;;;;;;5087029;28;19924;-84
2021/06/21 15:45:37;;;;;;;;;;;;;;;;;;5076022;28;20397;-79
2021/06/21 15:48:06;;;;;;;;;;;;;;;;;;5056870;28;19935;-82
2021/06/21 15:50:35;;;;;;;;;;;;;;;;;;5064609;28;19924;-78
2021/06/21 15:53:05;;;;;;;;;;;;;;;;;;5061063;28;19924;-84
2021/06/21 15:55:34;;;;;;;;;;;;;;;;;;5080327;28;19928;-89
2021/06/21 15:58:04;;;;;;;;;;;;;;;;;;5085097;28;19931;-78
2021/06/21 16:00:34;;;;;;;;;;;;;;;;;;5067282;28;19931;-78
2021/06/21 16:03:02;;;;;;;;;;;;;;;;;;5073876;28;19935;-81
2021/06/21 16:05:31;;;;;;;;;;;;;;;;;;5057459;28;20298;-79
2021/06/21 16:08:00;;;;;;;;;;;;;;;;;;5072258;28;19935;-83
2021/06/21 16:10:29;;;;;;;;;;;;;;;;;;5072197;28;20381;-79
2021/06/21 16:12:57;;;;;;;;;;;;;;;;;;5080899;28;19947;-85
2021/06/21 16:15:26;;;;;;;;;;;;;;;;;;5084676;28;19924;-84
2021/06/21 16:17:57;;;;;;;;;;;;;;;;;;5064863;28;19931;-79
2021/06/21 16:20:25;;;;;;;;;;;;;;;;;;5052972;28;19931;-83
2021/06/21 16:22:54;;;;;;;;;;;;;;;;;;5071339;28;20413;-84
2021/06/21 16:25:24;;;;;;;;;;;;;;;;;;5060698;28;19935;-80
2021/06/21 16:27:52;;;;;;;;;;;;;;;;;;5045680;28;19924;-82
2021/06/21 16:30:21;;;;;;;;;;;;;;;;;;5069769;28;19925;-82
2021/06/21 16:32:50;;;;;;;;;;;;;;;;;;5056830;28;19935;-86
2021/06/21 16:35:20;;;;;;;;;;;;;;;;;;5050363;28;19924;-80
2021/06/21 16:37:49;;;;;;;;;;;;;;;;;;5064879;28;20301;-80
2021/06/21 16:40:18;;;;;;;;;;;;;;;;;;5061895;28;19932;-78
2021/06/21 16:42:48;;;;;;;;;;;;;;;;;;5083812;28;19924;-80
2021/06/21 16:45:16;;;;;;;;;;;;;;;;;;5046452;28;19931;-80
2021/06/21 16:47:45;;;;;;;;;;;;;;;;;;5063117;28;19924;-80
2021/06/21 16:50:14;;;;;;;;;;;;;;;;;;5047498;28;19928;-78
2021/06/21 16:52:43;;;;;;;;;;;;;;;;;;5064853;28;19924;-84
2021/06/21 16:55:11;;;;;;;;;;;;;;;;;;5050421;28;19940;-80
2021/06/21 16:57:41;;;;;;;;;;;;;;;;;;5060192;28;19943;-79
2021/06/21 17:00:11;;;;;;;;;;;;;;;;;;5044990;28;19939;-81
2021/06/21 17:02:39;;;;;;;;;;;;;;;;;;5064822;28;19925;-81
2021/06/21 17:05:08;;;;;;;;;;;;;;;;;;5062467;28;19931;-78
2021/06/21 17:07:37;;;;;;;;;;;;;;;;;;5044807;28;19932;-80
2021/06/21 17:10:10;;;;;;;;;;;;;;;;;;5045408;28;19931;-79
2021/06/21 17:12:39;;;;;;;;;;;;;;;;;;5069941;28;19924;-80
2021/06/21 17:15:08;;;;;;;;;;;;;;;;;;5048643;28;19958;-84